Impacts TAF Board INFO
FOR SITUATIONAL AWARENESS. NOT TO BE USED FOR FLIGHT PLANNING PURPOSES.
IDs:

KBOS - Boston/Logan Intl, MA, US

Issued at 2327 UTC 16 Dec 2017
Updated at 0228 UTC 17 Dec 2017
Potential Impact None Slight Moderate High
Time0154Z 17/03Z 17/04Z 17/05Z 17/06Z 17/07Z 17/08Z 17/09Z 17/10Z 17/11Z 17/12Z 17/13Z 17/14Z 17/15Z>>
Type OBS PRVL PRVL PRVL PRVL PRVL PRVL PRVL PRVL PRVL PRVL PRVL PRVL PRVL
VIS 10 >6 >6 >6 >6 >6 >6 >6 >6 >6 >6 >6 >6 >6
CIG -- -- -- -- -- -- -- -- -- -- -- -- -- --
Cover FEW SKC SKC SKC SKC SKC SKC SKC SKC SKC SKC SKC SKC SKC
FltCat VFR VFR VFR VFR VFR VFR VFR VFR VFR VFR VFR VFR VFR VFR
WX -- -- -- -- -- -- -- -- -- -- -- -- -- --
WDir 280 310 310 310 310 310 310 310 310 310 310 310 310 310
WSpd 7 10 10 10 10 10 10 10 10 10 10 10 10 10
WGst -- -- -- -- -- -- -- -- -- -- -- -- -- --

Raw TAF
KBOS 162327Z 1700/1806 29010G20KT P6SM FEW050
  FM170200 31010KT P6SM SKC
  FM172200 30005KT P6SM SCT150


Raw METAR
KBOS 170154Z 28007KT 10SM FEW250 M02/M09 A3012 RMK AO2 SLP197 T10221089
KBOS 170054Z 28012KT 10SM FEW070 M02/M09 A3009 RMK AO2 SLP187 T10171089
KBOS 162354Z 27015G19KT 10SM FEW075 M01/M07 A3006 RMK AO2 SLP177 T10111072 10011 21011 53037

METAR Board
Radar Display
Forecast Discussion

FOR SITUATIONAL AWARENESS. NOT TO BE USED FOR FLIGHT PLANNING PURPOSES.